Time;durP1;ratioP1;P1;durP2;ratioP2;P2;SDS_P1;SDS_P2;PMS_P1;PMS_P2;Temp;Humidity;BMP_temperature;BMP_pressure;BME280_temperature;BME280_humidity;BME280_pressure;Samples;Min_cycle;Max_cycle;Signal;HPM_P1;HPM_P2
2022/05/20 00:01:45;;;;;;;14.13;12.82;;;13.60;99.90;;;;;;4959382;28;89839;-35
2022/05/20 00:04:11;;;;;;;12.00;10.90;;;13.70;99.90;;;;;;4959100;28;91112;-38
2022/05/20 00:06:37;;;;;;;13.35;11.93;;;13.70;99.90;;;;;;4958888;28;89297;-35
2022/05/20 00:09:03;;;;;;;11.70;10.60;;;13.80;99.90;;;;;;4959931;28;90227;-35
2022/05/20 00:11:29;;;;;;;15.02;10.55;;;13.80;99.90;;;;;;4959035;28;90180;-34
2022/05/20 00:13:55;;;;;;;12.25;11.10;;;13.60;99.90;;;;;;4958710;28;89879;-39
2022/05/20 00:16:20;;;;;;;10.82;9.73;;;13.70;99.90;;;;;;4958864;28;90163;-38
2022/05/20 00:18:46;;;;;;;10.65;8.65;;;13.70;99.90;;;;;;4959207;28;90471;-36
2022/05/20 00:21:12;;;;;;;11.32;9.95;;;13.70;99.90;;;;;;4960205;28;90097;-38
2022/05/20 00:23:38;;;;;;;12.43;9.57;;;13.70;99.90;;;;;;4959164;28;89433;-35
2022/05/20 00:26:03;;;;;;;13.88;8.70;;;13.70;99.90;;;;;;4960176;28;90460;-36
2022/05/20 00:28:29;;;;;;;9.63;8.60;;;13.60;99.90;;;;;;4959834;28;90211;-34
2022/05/20 00:31:02;;;;;;;10.18;9.20;;;13.70;99.90;;;;;;4959714;28;88571;-36
2022/05/20 00:33:28;;;;;;;10.68;9.68;;;13.60;99.90;;;;;;4960210;28;90856;-36
2022/05/20 00:35:54;;;;;;;9.27;8.27;;;13.60;99.90;;;;;;4959182;28;87638;-33
2022/05/20 00:38:21;;;;;;;9.63;8.65;;;13.60;99.90;;;;;;4960230;28;90957;-34
2022/05/20 00:40:49;;;;;;;10.75;9.18;;;13.60;99.90;;;;;;4958262;28;90358;-36
2022/05/20 00:43:26;;;;;;;13.02;9.65;;;13.60;99.90;;;;;;4959063;28;90675;-34
2022/05/20 00:48:21;;;;;;;10.40;9.18;;;13.50;99.90;;;;;;4959484;28;88730;-35
2022/05/20 00:50:54;;;;;;;8.57;7.93;;;13.60;99.90;;;;;;4962954;28;90077;-38
2022/05/20 00:53:22;;;;;;;12.95;9.02;;;13.50;99.90;;;;;;4963450;28;89377;-36
2022/05/20 00:55:48;;;;;;;15.73;8.45;;;13.50;99.90;;;;;;4963578;28;88135;-37
2022/05/20 00:58:17;;;;;;;11.40;9.82;;;13.50;99.90;;;;;;4962682;28;90533;-36
2022/05/20 01:00:47;;;;;;;10.20;8.73;;;13.50;99.90;;;;;;4962073;28;89866;-35
2022/05/20 01:03:15;;;;;;;10.45;9.13;;;13.40;99.90;;;;;;4962349;28;89517;-37
2022/05/20 01:05:46;;;;;;;9.65;8.18;;;13.40;99.90;;;;;;4961703;28;88535;-37
2022/05/20 01:08:19;;;;;;;9.82;9.02;;;13.50;99.90;;;;;;4962677;28;90160;-33
2022/05/20 01:10:44;;;;;;;10.63;8.07;;;13.40;99.90;;;;;;4962647;28;89709;-36
2022/05/20 01:13:12;;;;;;;8.75;8.02;;;13.30;99.90;;;;;;4962492;28;90225;-34
2022/05/20 01:15:38;;;;;;;10.50;9.02;;;13.40;99.90;;;;;;4962237;28;90235;-34
2022/05/20 01:18:04;;;;;;;9.48;8.48;;;13.40;99.90;;;;;;4963378;28;90219;-35
2022/05/20 01:20:38;;;;;;;9.55;8.60;;;13.40;99.90;;;;;;4959690;28;94760;-34
2022/05/20 01:23:16;;;;;;;9.20;8.40;;;13.40;99.90;;;;;;4958682;28;94152;-35
2022/05/20 01:25:46;;;;;;;13.95;9.20;;;13.30;99.90;;;;;;4960863;28;93248;-35
2022/05/20 01:28:12;;;;;;;10.57;8.20;;;13.40;99.90;;;;;;4960171;28;94921;-34
2022/05/20 01:30:43;;;;;;;15.63;8.45;;;13.40;99.90;;;;;;4959254;28;95451;-34
2022/05/20 01:33:10;;;;;;;9.60;8.63;;;13.40;99.90;;;;;;4959939;28;96870;-35
2022/05/20 01:35:46;;;;;;;7.68;6.95;;;13.40;99.90;;;;;;4959257;28;93105;-34
2022/05/20 01:38:12;;;;;;;9.38;8.48;;;13.40;99.90;;;;;;4960055;28;93818;-38
2022/05/20 01:40:52;;;;;;;9.55;8.75;;;13.40;99.90;;;;;;4958900;28;96449;-36
2022/05/20 01:43:36;;;;;;;8.57;7.75;;;13.40;99.90;;;;;;4959562;28;94795;-35
2022/05/20 01:46:27;;;;;;;7.88;7.05;;;13.40;99.90;;;;;;4959206;28;92672;-36
2022/05/20 01:48:59;;;;;;;8.18;7.07;;;13.30;99.90;;;;;;4959526;28;93596;-35
2022/05/20 01:51:30;;;;;;;8.13;7.03;;;13.20;99.90;;;;;;4959729;28;94621;-34
2022/05/20 01:54:01;;;;;;;9.75;7.85;;;13.20;99.90;;;;;;4959793;28;94459;-36
2022/05/20 01:56:56;;;;;;;10.45;7.85;;;13.20;99.90;;;;;;4959875;28;94074;-35
2022/05/20 01:59:32;;;;;;;7.00;6.40;;;13.20;99.90;;;;;;4957694;28;92478;-35
2022/05/20 02:02:08;;;;;;;10.60;8.35;;;13.10;99.90;;;;;;4958525;28;94884;-38
2022/05/20 02:04:49;;;;;;;6.72;6.18;;;13.10;99.90;;;;;;4959098;28;94265;-36
2022/05/20 02:07:26;;;;;;;8.00;7.20;;;13.20;99.90;;;;;;4959350;28;94098;-32
2022/05/20 02:10:06;;;;;;;7.22;6.45;;;13.00;99.90;;;;;;4959430;28;93530;-37
2022/05/20 02:12:41;;;;;;;9.85;7.60;;;13.00;99.90;;;;;;4958727;28;95220;-35
2022/05/20 02:15:13;;;;;;;11.35;8.55;;;12.90;99.90;;;;;;4960053;28;94251;-34
2022/05/20 02:17:41;;;;;;;7.55;6.78;;;13.00;99.90;;;;;;4958867;28;92950;-36
2022/05/20 02:20:20;;;;;;;9.40;7.72;;;13.00;99.90;;;;;;4959460;28;93113;-33
2022/05/20 02:22:54;;;;;;;8.73;7.93;;;12.90;99.90;;;;;;4958397;28;95545;-35
2022/05/20 02:25:27;;;;;;;9.18;7.65;;;12.80;99.90;;;;;;4959032;28;95358;-38
2022/05/20 02:27:59;;;;;;;7.63;6.93;;;12.70;99.90;;;;;;4959156;28;92880;-34
2022/05/20 02:30:28;;;;;;;10.75;7.00;;;12.60;99.90;;;;;;4959196;28;93813;-34
2022/05/20 02:33:17;;;;;;;7.53;6.88;;;12.60;99.90;;;;;;4958661;28;94294;-37
2022/05/20 02:35:44;;;;;;;10.15;8.80;;;12.60;99.90;;;;;;4951111;28;94696;-39
2022/05/20 02:38:13;;;;;;;7.85;6.47;;;12.60;99.90;;;;;;4940056;28;92356;-35
2022/05/20 02:40:45;;;;;;;8.27;7.15;;;12.60;99.90;;;;;;4939485;28;92376;-34
2022/05/20 02:43:11;;;;;;;11.50;7.90;;;12.50;99.90;;;;;;4939073;28;94844;-37
2022/05/20 02:45:38;;;;;;;8.73;7.55;;;12.30;99.90;;;;;;4938325;28;94582;-36
2022/05/20 02:48:05;;;;;;;8.73;6.97;;;12.30;99.90;;;;;;4938485;28;93700;-36
2022/05/20 02:50:31;;;;;;;8.73;7.93;;;12.30;99.90;;;;;;4939609;28;92163;-35
2022/05/20 02:52:57;;;;;;;10.77;7.72;;;12.30;99.90;;;;;;4938789;28;93781;-38
2022/05/20 02:55:23;;;;;;;9.27;8.38;;;12.20;99.90;;;;;;4938519;28;94513;-35
2022/05/20 02:57:49;;;;;;;11.55;8.65;;;12.20;99.90;;;;;;4938850;28;93903;-35
2022/05/20 03:05:43;;;;;;;11.02;9.27;;;12.20;99.90;;;;;;4938364;28;94662;-36
2022/05/20 03:08:09;;;;;;;10.40;9.35;;;12.20;99.90;;;;;;4938669;28;93883;-34
2022/05/20 03:10:35;;;;;;;10.27;8.65;;;12.20;99.90;;;;;;4938725;28;92941;-40
2022/05/20 03:13:05;;;;;;;10.52;9.23;;;12.20;99.90;;;;;;4937850;28;96236;-36
2022/05/20 03:15:31;;;;;;;11.70;9.88;;;12.10;99.90;;;;;;4938665;28;96076;-34
2022/05/20 03:17:56;;;;;;;11.77;10.43;;;12.20;99.90;;;;;;4938716;28;92875;-37
2022/05/20 03:20:23;;;;;;;11.18;10.07;;;12.20;99.90;;;;;;4937873;28;93223;-35
2022/05/20 03:22:49;;;;;;;15.35;9.25;;;12.20;99.90;;;;;;4937017;28;94902;-36
2022/05/20 03:25:15;;;;;;;11.15;9.95;;;12.20;99.90;;;;;;4939141;28;94473;-35
2022/05/20 03:27:41;;;;;;;12.52;9.73;;;12.30;99.90;;;;;;4938348;28;94008;-34
2022/05/20 03:30:09;;;;;;;10.18;9.02;;;12.30;99.90;;;;;;4938720;28;93710;-38
2022/05/20 03:32:35;;;;;;;11.30;10.15;;;12.20;99.90;;;;;;4938094;28;95457;-36
2022/05/20 03:35:01;;;;;;;10.50;9.50;;;12.20;99.90;;;;;;4937206;28;94649;-37
2022/05/20 03:37:27;;;;;;;10.77;9.68;;;12.20;99.90;;;;;;4937757;28;94582;-36
2022/05/20 03:39:55;;;;;;;14.52;10.93;;;12.10;99.90;;;;;;4938746;28;92085;-35
2022/05/20 03:42:21;;;;;;;;;;;12.10;99.90;;;;;;4937406;28;94811;-34
2022/05/20 03:44:47;;;;;;;10.82;9.43;;;12.10;99.90;;;;;;4939009;28;94150;-40
2022/05/20 03:47:12;;;;;;;12.48;10.48;;;12.00;99.90;;;;;;4938679;28;93334;-35
2022/05/20 03:49:40;;;;;;;15.10;10.63;;;11.90;99.90;;;;;;4937076;28;94687;-36
2022/05/20 03:52:06;;;;;;;14.65;10.98;;;11.90;99.90;;;;;;4937162;28;94727;-36
2022/05/20 03:54:33;;;;;;;12.95;10.23;;;11.90;99.90;;;;;;4938164;28;94640;-35
2022/05/20 03:56:59;;;;;;;11.98;10.02;;;11.90;99.90;;;;;;4936770;28;92650;-36
2022/05/20 03:59:26;;;;;;;11.38;10.10;;;11.80;99.90;;;;;;4937301;28;92128;-35
2022/05/20 04:01:58;;;;;;;12.20;9.80;;;11.80;99.90;;;;;;4936680;28;95322;-36
2022/05/20 04:04:49;;;;;;;10.43;9.50;;;11.80;99.90;;;;;;4937811;28;95251;-36
2022/05/20 04:07:18;;;;;;;14.93;10.70;;;11.90;99.90;;;;;;4937719;28;94648;-35
2022/05/20 04:09:44;;;;;;;15.27;9.77;;;11.80;99.90;;;;;;4936605;28;93248;-35
2022/05/20 04:12:34;;;;;;;10.65;9.70;;;11.80;99.90;;;;;;4937878;28;94820;-35
2022/05/20 04:15:00;;;;;;;10.98;9.93;;;11.90;99.90;;;;;;4937974;28;95318;-36
2022/05/20 04:17:27;;;;;;;12.07;10.90;;;12.00;99.90;;;;;;4938594;28;93634;-33
2022/05/20 04:19:53;;;;;;;10.80;9.60;;;12.00;99.90;;;;;;4936836;28;93008;-35
2022/05/20 04:22:25;;;;;;;19.00;10.60;;;12.10;99.90;;;;;;4937824;28;94692;-36
2022/05/20 04:24:51;;;;;;;13.70;10.73;;;12.20;99.90;;;;;;4936363;28;93582;-35
2022/05/20 04:27:16;;;;;;;14.43;10.45;;;12.20;99.90;;;;;;4936389;28;93109;-36
2022/05/20 04:29:42;;;;;;;14.75;10.35;;;12.30;99.90;;;;;;4936528;28;93311;-37
2022/05/20 04:32:09;;;;;;;15.50;10.60;;;12.40;99.90;;;;;;4937242;28;94935;-35
2022/05/20 04:34:35;;;;;;;15.88;10.38;;;12.50;99.90;;;;;;4936806;28;94546;-37
2022/05/20 04:37:00;;;;;;;12.90;11.57;;;12.40;99.90;;;;;;4936397;28;94126;-33
2022/05/20 04:39:26;;;;;;;11.82;10.73;;;12.40;99.90;;;;;;4937078;28;93716;-34
2022/05/20 04:47:27;;;;;;;15.55;10.73;;;12.50;99.90;;;;;;4936876;28;92135;-35
2022/05/20 04:49:53;;;;;;;13.35;9.98;;;12.60;99.90;;;;;;4937076;28;94354;-34
2022/05/20 04:52:20;;;;;;;13.95;10.13;;;12.50;99.90;;;;;;4935861;28;95451;-37
2022/05/20 04:54:55;;;;;;;11.38;10.15;;;12.70;99.90;;;;;;4935840;28;96094;-35
2022/05/20 04:57:26;;;;;;;13.90;11.45;;;12.70;99.90;;;;;;4936993;28;93424;-37
2022/05/20 05:00:12;;;;;;;14.90;12.98;;;12.80;99.90;;;;;;4936767;28;94624;-38
2022/05/20 05:02:39;;;;;;;16.67;12.48;;;12.90;99.90;;;;;;4936166;28;94706;-34
2022/05/20 05:05:07;;;;;;;12.95;11.25;;;12.90;99.90;;;;;;4936075;28;95022;-36
2022/05/20 05:07:36;;;;;;;;;;;12.90;99.90;;;;;;4936623;28;93157;-35
2022/05/20 05:10:03;;;;;;;11.80;10.57;;;12.90;99.90;;;;;;4938626;28;91810;-36
2022/05/20 05:12:30;;;;;;;13.75;11.90;;;12.90;99.90;;;;;;4936608;28;94915;-36
2022/05/20 05:14:56;;;;;;;12.85;11.48;;;13.00;99.90;;;;;;4936180;28;95648;-36
2022/05/20 05:20:23;;;;;;;13.35;11.88;;;13.30;99.90;;;;;;4936427;28;93927;-34
2022/05/20 05:22:50;;;;;;;12.77;11.15;;;13.30;99.90;;;;;;4936125;28;94692;-40
2022/05/20 05:25:16;;;;;;;13.23;11.80;;;13.30;99.90;;;;;;4936698;28;94990;-37
2022/05/20 05:27:42;;;;;;;11.93;10.75;;;13.40;99.90;;;;;;4935665;28;93856;-35
2022/05/20 05:30:11;;;;;;;16.38;11.23;;;13.40;99.90;;;;;;4936137;28;94473;-39
2022/05/20 05:32:37;;;;;;;12.93;10.98;;;13.40;99.90;;;;;;4935634;28;94957;-35
2022/05/20 05:35:05;;;;;;;11.93;10.80;;;13.40;99.90;;;;;;4937687;28;94341;-36
2022/05/20 05:37:34;;;;;;;12.88;11.63;;;13.40;99.90;;;;;;4939839;28;93108;-34
2022/05/20 05:39:59;;;;;;;17.33;12.98;;;13.50;99.90;;;;;;4938473;28;94620;-34
2022/05/20 05:42:25;;;;;;;24.95;11.68;;;13.60;99.90;;;;;;4939051;28;95786;-35
2022/05/20 05:44:53;;;;;;;11.55;10.35;;;13.70;99.90;;;;;;4939064;28;95597;-36
2022/05/20 05:47:18;;;;;;;12.32;10.43;;;13.80;99.90;;;;;;4939038;28;93341;-37
2022/05/20 05:49:44;;;;;;;12.60;11.40;;;13.80;99.90;;;;;;4954248;28;93167;-35
2022/05/20 05:52:09;;;;;;;12.95;11.43;;;14.10;99.90;;;;;;4937883;28;95360;-37
2022/05/20 05:54:35;;;;;;;14.60;11.32;;;14.40;99.90;;;;;;4938808;28;94953;-37
2022/05/20 05:57:01;;;;;;;13.18;10.02;;;14.90;99.90;;;;;;4940557;28;93376;-34
2022/05/20 05:59:28;;;;;;;12.25;10.68;;;15.20;99.90;;;;;;4939928;28;93276;-37
2022/05/20 06:02:12;;;;;;;11.68;9.80;;;15.00;99.90;;;;;;4938997;28;94715;-40
2022/05/20 06:04:37;;;;;;;19.42;10.60;;;15.10;99.90;;;;;;4939608;28;95426;-36
2022/05/20 06:07:04;;;;;;;15.57;11.77;;;14.80;99.90;;;;;;4938747;28;94191;-36
2022/05/20 06:09:30;;;;;;;26.73;10.77;;;14.60;99.90;;;;;;4938620;28;93416;-35
2022/05/20 06:11:56;;;;;;;11.50;9.50;;;14.40;99.90;;;;;;4938195;28;93903;-38
2022/05/20 06:14:22;;;;;;;13.38;10.70;;;14.40;99.90;;;;;;4938351;28;94463;-36
2022/05/20 06:16:48;;;;;;;16.05;10.85;;;14.30;99.90;;;;;;4939236;28;94039;-35
2022/05/20 06:19:14;;;;;;;13.85;10.73;;;14.20;99.90;;;;;;4938451;28;92954;-36
2022/05/20 06:21:40;;;;;;;12.43;9.88;;;14.10;99.90;;;;;;4938758;28;95396;-36
2022/05/20 06:24:08;;;;;;;13.55;10.75;;;14.20;99.90;;;;;;4950281;28;94504;-34
2022/05/20 06:26:35;;;;;;;12.82;10.25;;;14.30;99.90;;;;;;4956370;28;93132;-34
2022/05/20 06:29:00;;;;;;;13.45;10.57;;;14.50;99.90;;;;;;4957245;28;94407;-35
2022/05/20 06:31:26;;;;;;;16.52;10.27;;;14.70;99.90;;;;;;4955408;28;95904;-34
2022/05/20 06:33:52;;;;;;;11.43;10.23;;;14.80;99.90;;;;;;4955238;28;95831;-36
2022/05/20 06:41:46;;;;;;;10.30;7.72;;;15.50;99.90;;;;;;4956994;28;94801;-39
2022/05/20 06:44:12;;;;;;;11.93;7.82;;;15.70;99.90;;;;;;4956279;28;94822;-38
2022/05/20 06:46:38;;;;;;;11.00;9.25;;;16.00;99.90;;;;;;4955445;28;94317;-37
2022/05/20 06:49:03;;;;;;;12.15;8.32;;;16.00;99.90;;;;;;4958175;28;93686;-37
2022/05/20 06:51:31;;;;;;;12.93;8.18;;;16.10;99.90;;;;;;4957811;28;93967;-37
2022/05/20 06:53:59;;;;;;;8.07;6.38;;;16.00;99.90;;;;;;4957576;28;94959;-37
2022/05/20 06:56:30;;;;;;;9.63;7.70;;;15.80;99.90;;;;;;4958791;28;93907;-36
2022/05/20 06:58:58;;;;;;;8.52;6.55;;;15.60;99.90;;;;;;4958947;28;94537;-36
2022/05/20 07:01:23;;;;;;;12.90;8.43;;;15.70;99.90;;;;;;4958313;28;93617;-37
2022/05/20 07:03:50;;;;;;;11.85;7.45;;;16.00;99.90;;;;;;4956636;28;94743;-36
2022/05/20 07:06:16;;;;;;;7.80;6.95;;;16.30;99.90;;;;;;4958467;28;92890;-36
2022/05/20 07:08:46;;;;;;;9.55;8.65;;;16.50;99.90;;;;;;4958040;28;92920;-33
2022/05/20 07:11:12;;;;;;;10.32;8.98;;;16.20;99.90;;;;;;4958100;28;94651;-33
2022/05/20 07:13:38;;;;;;;8.45;6.97;;;16.40;99.90;;;;;;4957842;28;94375;-34
2022/05/20 07:16:04;;;;;;;9.68;7.35;;;16.30;99.90;;;;;;4958159;28;94105;-36
2022/05/20 07:18:29;;;;;;;10.20;7.97;;;16.40;99.90;;;;;;4957817;28;92531;-35
2022/05/20 07:20:56;;;;;;;11.05;7.15;;;16.40;99.90;;;;;;4957314;28;95476;-37
2022/05/20 07:23:25;;;;;;;8.63;7.28;;;16.10;99.90;;;;;;4957970;28;95431;-35
2022/05/20 07:25:51;;;;;;;10.48;7.88;;;16.10;99.90;;;;;;4958408;28;93053;-35
2022/05/20 07:28:17;;;;;;;7.53;6.38;;;16.20;99.90;;;;;;4958378;28;94311;-36
2022/05/20 07:30:43;;;;;;;6.65;5.75;;;16.00;99.90;;;;;;4957480;28;94691;-37
2022/05/20 07:33:08;;;;;;;8.52;7.28;;;16.00;99.90;;;;;;4957721;28;94907;-36
2022/05/20 07:35:36;;;;;;;11.15;7.40;;;16.00;99.90;;;;;;4958139;28;92991;-36
2022/05/20 07:38:02;;;;;;;7.55;6.72;;;16.10;99.90;;;;;;4957776;28;92080;-35
2022/05/20 07:40:28;;;;;;;7.50;6.53;;;16.30;99.90;;;;;;4957864;28;96877;-35
2022/05/20 07:42:54;;;;;;;7.32;6.72;;;16.40;99.90;;;;;;4957050;28;94668;-34
2022/05/20 07:45:20;;;;;;;8.07;7.38;;;16.50;99.90;;;;;;4957805;28;93785;-37
2022/05/20 07:47:46;;;;;;;9.73;8.27;;;16.50;99.90;;;;;;4956696;28;94570;-35
2022/05/20 07:50:13;;;;;;;10.20;7.57;;;16.50;99.90;;;;;;4958008;28;94461;-37
2022/05/20 07:55:31;;;;;;;11.48;7.97;;;16.10;99.90;;;;;;4958364;28;94455;-35
2022/05/20 07:57:57;;;;;;;9.70;8.70;;;16.10;99.90;;;;;;4956672;28;93186;-36
2022/05/20 08:00:24;;;;;;;9.73;8.77;;;16.00;99.90;;;;;;4957363;28;94673;-36
2022/05/20 08:02:51;;;;;;;12.77;10.45;;;16.00;99.90;;;;;;4957566;28;94436;-33
2022/05/20 08:05:21;;;;;;;10.18;9.20;;;16.10;99.90;;;;;;4957736;28;94286;-38
2022/05/20 08:07:47;;;;;;;11.75;10.55;;;16.20;99.90;;;;;;4957575;28;93654;-35
2022/05/20 08:10:21;;;;;;;11.18;8.77;;;16.30;99.90;;;;;;4956084;28;95711;-35
2022/05/20 08:12:48;;;;;;;9.60;8.02;;;16.80;99.90;;;;;;4957080;28;95581;-37
2022/05/20 08:15:15;;;;;;;11.77;9.52;;;17.30;99.90;;;;;;4957417;28;94302;-35
2022/05/20 08:17:43;;;;;;;8.63;7.82;;;17.70;99.90;;;;;;4957197;28;93312;-34
2022/05/20 08:20:16;;;;;;;12.77;8.57;;;17.90;99.90;;;;;;4955938;28;94951;-38
2022/05/20 08:22:41;;;;;;;14.45;8.10;;;18.40;99.90;;;;;;4956091;28;95041;-36
2022/05/20 08:25:07;;;;;;;11.00;8.65;;;18.20;99.90;;;;;;4956980;28;94945;-39
2022/05/20 08:27:33;;;;;;;12.35;8.40;;;18.20;99.90;;;;;;4957791;28;92501;-36
2022/05/20 08:30:07;;;;;;;10.82;9.73;;;18.20;99.90;;;;;;4956448;28;96066;-34
2022/05/20 08:32:33;;;;;;;13.52;10.02;;;18.10;99.90;;;;;;4957067;28;94096;-33
2022/05/20 08:34:58;;;;;;;9.82;8.85;;;18.50;99.90;;;;;;4955563;28;93714;-34
2022/05/20 08:37:24;;;;;;;7.97;7.30;;;18.70;99.90;;;;;;4956414;28;94445;-34
2022/05/20 08:39:49;;;;;;;9.90;6.88;;;18.50;99.90;;;;;;4955740;28;94922;-35
2022/05/20 08:42:20;;;;;;;9.73;8.77;;;18.70;99.90;;;;;;4957377;28;95554;-36
2022/05/20 08:44:45;;;;;;;9.65;8.38;;;19.00;99.90;;;;;;4956931;28;94899;-37
2022/05/20 08:47:22;;;;;;;6.88;6.28;;;19.20;99.90;;;;;;4956355;28;92545;-39
2022/05/20 08:49:53;;;;;;;7.38;6.72;;;19.20;99.90;;;;;;4955784;28;94817;-39
2022/05/20 08:52:19;;;;;;;7.57;6.88;;;19.00;99.90;;;;;;4956792;28;94540;-34
2022/05/20 08:54:45;;;;;;;8.15;7.10;;;19.00;99.90;;;;;;4956168;28;93744;-35
2022/05/20 08:57:22;;;;;;;8.50;7.72;;;18.50;99.90;;;;;;4956672;28;92558;-36
2022/05/20 08:59:47;;;;;;;7.55;6.95;;;18.20;99.90;;;;;;4955511;28;95630;-36
2022/05/20 09:02:13;;;;;;;9.52;6.95;;;18.40;99.90;;;;;;4956632;28;95761;-35
2022/05/20 09:04:39;;;;;;;7.55;6.85;;;18.80;99.90;;;;;;4956430;28;93102;-34
2022/05/20 09:07:08;;;;;;;9.27;6.88;;;19.00;99.90;;;;;;4955867;28;92090;-34
2022/05/20 09:09:48;;;;;;;8.18;7.47;;;19.10;99.90;;;;;;4957246;28;94406;-35
2022/05/20 09:12:36;;;;;;;7.30;6.60;;;19.40;99.90;;;;;;4959885;28;94489;-36
2022/05/20 09:18:00;;;;;;;6.75;6.15;;;19.40;99.90;;;;;;4959924;28;93058;-33
2022/05/20 09:20:26;;;;;;;13.20;6.28;;;19.60;99.90;;;;;;4960328;28;95417;-35
2022/05/20 09:23:06;;;;;;;13.57;7.68;;;19.80;99.90;;;;;;4959438;28;94899;-37
2022/05/20 09:25:34;;;;;;;11.20;7.80;;;19.70;99.90;;;;;;4957277;28;93394;-35
2022/05/20 09:28:18;;;;;;;8.57;7.40;;;19.50;99.90;;;;;;4957035;28;94762;-34
2022/05/20 09:30:47;;;;;;;8.48;7.60;;;19.70;99.90;;;;;;4944063;28;95191;-38
2022/05/20 09:33:22;;;;;;;9.32;7.53;;;19.30;99.90;;;;;;4937485;28;93926;-38
2022/05/20 09:35:57;;;;;;;9.77;7.53;;;19.50;99.90;;;;;;4937656;28;93295;-35
2022/05/20 09:38:42;;;;;;;12.45;7.45;;;19.40;99.90;;;;;;4937049;28;93986;-39
2022/05/20 09:41:18;;;;;;;10.32;9.23;;;19.40;99.90;;;;;;4938502;28;94740;-37
2022/05/20 09:43:51;;;;;;;12.35;8.23;;;19.30;99.90;;;;;;4938029;28;94501;-38
2022/05/20 09:46:40;;;;;;;7.65;6.93;;;19.20;99.90;;;;;;4938023;28;92792;-37
2022/05/20 09:49:14;;;;;;;13.35;8.70;;;19.10;99.90;;;;;;4938024;28;94358;-40
2022/05/20 09:51:57;;;;;;;10.55;7.25;;;19.00;99.90;;;;;;4937064;28;95508;-36
2022/05/20 09:54:32;;;;;;;8.43;7.55;;;18.80;99.90;;;;;;4938338;28;95475;-33
2022/05/20 09:57:23;;;;;;;8.00;7.07;;;19.00;99.90;;;;;;4935876;28;93843;-35
2022/05/20 09:59:54;;;;;;;9.07;7.07;;;19.20;99.90;;;;;;4937052;28;92945;-34
2022/05/20 10:02:24;;;;;;;8.57;6.82;;;19.10;99.90;;;;;;4937774;28;94656;-37
2022/05/20 10:04:56;;;;;;;7.47;6.55;;;19.20;99.90;;;;;;4937137;28;94560;-38
2022/05/20 10:07:38;;;;;;;8.60;7.75;;;19.20;99.90;;;;;;4937745;28;92232;-35
2022/05/20 10:10:21;;;;;;;8.57;7.75;;;18.90;99.90;;;;;;4936912;28;93483;-36
2022/05/20 10:12:50;;;;;;;8.60;7.30;;;18.90;99.90;;;;;;4936866;28;94905;-35
2022/05/20 10:15:21;;;;;;;10.05;8.88;;;18.90;99.90;;;;;;4937481;28;94470;-37
2022/05/20 10:17:54;;;;;;;9.25;7.40;;;19.00;99.90;;;;;;4936742;28;94718;-39
2022/05/20 10:20:36;;;;;;;9.52;8.15;;;18.90;99.90;;;;;;4936676;28;93653;-37
2022/05/20 10:23:15;;;;;;;7.00;6.30;;;18.80;99.90;;;;;;4937146;28;94832;-35
2022/05/20 10:25:57;;;;;;;9.25;7.05;;;19.00;99.90;;;;;;4937076;28;94663;-36
2022/05/20 10:34:21;;;;;;;9.52;8.00;;;19.30;99.90;;;;;;4936622;28;94689;-34
2022/05/20 10:37:05;;;;;;;8.80;7.90;;;19.00;99.90;;;;;;4936586;28;94392;-36
2022/05/20 10:40:10;;;;;;;9.38;8.02;;;19.00;99.90;;;;;;4936607;28;92620;-37
2022/05/20 10:42:54;;;;;;;8.43;7.68;;;19.20;99.90;;;;;;4936524;28;93461;-35
2022/05/20 10:48:36;;;;;;;9.35;7.78;;;19.30;99.90;;;;;;4935718;28;96108;-36
2022/05/20 10:51:17;;;;;;;7.80;7.05;;;19.50;99.90;;;;;;4936573;28;93241;-34
2022/05/20 10:53:54;;;;;;;8.15;7.43;;;19.40;99.90;;;;;;4936305;28;92970;-38
2022/05/20 10:56:33;;;;;;;9.35;8.40;;;19.40;99.90;;;;;;4936688;28;95034;-35
2022/05/20 10:59:19;;;;;;;8.35;7.55;;;19.10;99.90;;;;;;4935639;28;93948;-36
2022/05/20 11:02:13;;;;;;;8.13;7.40;;;19.10;99.90;;;;;;4937081;28;94225;-39
2022/05/20 11:04:47;;;;;;;8.18;7.10;;;18.90;99.90;;;;;;4936872;28;92628;-35
2022/05/20 11:07:44;;;;;;;7.97;7.22;;;18.90;99.90;;;;;;4936181;28;94093;-35
2022/05/20 11:10:17;;;;;;;11.02;7.38;;;18.80;99.90;;;;;;4936679;28;94412;-37
2022/05/20 11:12:58;;;;;;;9.57;7.38;;;19.10;99.90;;;;;;4936349;28;93926;-37
2022/05/20 11:15:38;;;;;;;7.40;6.70;;;19.30;99.90;;;;;;4936755;28;93415;-33
2022/05/20 11:18:25;;;;;;;8.95;8.15;;;19.10;99.90;;;;;;4936647;28;94968;-34
2022/05/20 11:20:58;;;;;;;13.30;9.95;;;19.30;99.90;;;;;;4935933;28;95506;-35
2022/05/20 11:23:52;;;;;;;11.40;10.20;;;19.30;99.90;;;;;;4936578;28;94673;-39
2022/05/20 11:26:37;;;;;;;10.57;9.48;;;19.30;99.90;;;;;;4947845;28;93650;-36
2022/05/20 11:29:24;;;;;;;13.52;9.45;;;19.50;99.90;;;;;;4935408;28;94910;-37
2022/05/20 11:32:05;;;;;;;13.27;11.23;;;19.60;99.90;;;;;;4935856;28;94667;-39
2022/05/20 11:35:12;;;;;;;14.85;12.45;;;19.40;99.90;;;;;;4934636;28;94126;-40
2022/05/20 11:37:55;;;;;;;15.93;13.63;;;19.40;99.90;;;;;;4934448;28;93308;-36
2022/05/20 11:40:31;;;;;;;13.70;12.20;;;19.60;99.90;;;;;;4934327;28;95974;-35
2022/05/20 11:43:11;;;;;;;12.65;11.45;;;19.70;99.90;;;;;;4934636;28;95738;-38
2022/05/20 11:45:51;;;;;;;14.90;13.50;;;19.80;99.90;;;;;;4935505;28;93198;-38
2022/05/20 11:48:40;;;;;;;15.15;12.80;;;19.90;99.90;;;;;;4934993;28;94826;-34
2022/05/20 11:51:27;;;;;;;13.20;12.00;;;20.00;99.90;;;;;;4954941;28;94966;-38
2022/05/20 11:54:10;;;;;;;15.82;13.48;;;20.20;99.90;;;;;;4954683;28;95033;-35
2022/05/20 11:56:45;;;;;;;13.35;11.95;;;19.80;99.90;;;;;;4954660;28;94358;-37
2022/05/20 11:59:23;;;;;;;15.57;12.23;;;19.60;99.90;;;;;;4954676;28;92767;-35
2022/05/20 12:01:53;;;;;;;14.57;13.07;;;19.60;99.50;;;;;;4933518;28;98253;-36
2022/05/20 12:04:21;;;;;;;13.32;12.02;;;19.50;99.90;;;;;;4934139;28;95915;-35
2022/05/20 12:06:52;;;;;;;16.02;13.13;;;19.50;99.90;;;;;;4933125;28;94646;-35
2022/05/20 12:09:52;;;;;;;15.60;14.05;;;19.80;99.90;;;;;;4933503;28;92596;-35
2022/05/20 12:12:25;;;;;;;13.35;12.07;;;20.00;99.90;;;;;;4935743;28;94781;-35
2022/05/20 12:15:11;;;;;;;14.82;13.30;;;19.80;90.00;;;;;;4934563;28;94303;-36
2022/05/20 12:17:42;;;;;;;16.33;14.77;;;19.70;83.40;;;;;;4934987;28;94092;-35
2022/05/20 12:25:55;;;;;;;19.80;17.43;;;20.00;99.90;;;;;;4937265;28;94860;-35
2022/05/20 12:28:21;;;;;;;18.33;16.38;;;19.90;99.90;;;;;;4935788;28;93354;-35
2022/05/20 12:31:33;;;;;;;19.25;17.08;;;20.00;99.90;;;;;;4933504;28;92802;-37
2022/05/20 12:34:26;;;;;;;20.38;15.95;;;20.10;99.90;;;;;;4923042;28;95768;-38
2022/05/20 12:36:51;;;;;;;19.77;17.77;;;19.80;99.90;;;;;;4933604;28;95381;-35
2022/05/20 12:39:20;;;;;;;19.83;17.40;;;20.00;99.90;;;;;;4934968;28;93070;-35
2022/05/20 12:41:48;;;;;;;18.73;16.92;;;20.00;99.90;;;;;;4934431;28;94569;-35
2022/05/20 12:44:17;;;;;;;17.25;14.00;;;20.10;99.90;;;;;;4933984;28;94582;-33
2022/05/20 12:47:08;;;;;;;18.80;14.60;;;19.80;99.90;;;;;;4972993;22;95423;-39
2022/05/20 12:49:56;;;;;;;18.08;14.98;;;20.00;99.90;;;;;;4954546;28;94550;-35
2022/05/20 12:52:26;;;;;;;16.88;15.27;;;20.00;99.90;;;;;;4950544;28;95061;-35
2022/05/20 12:54:58;;;;;;;16.45;14.30;;;20.00;99.90;;;;;;4954036;28;94733;-34
2022/05/20 12:57:28;;;;;;;13.85;12.27;;;20.00;99.90;;;;;;4953741;28;94632;-39
2022/05/20 13:00:02;;;;;;;14.60;13.00;;;19.90;99.90;;;;;;4953327;28;93483;-34
2022/05/20 13:02:53;;;;;;;16.20;14.60;;;19.90;99.90;;;;;;4954576;28;94284;-36
2022/05/20 13:05:46;;;;;;;17.27;14.07;;;19.80;99.90;;;;;;4953835;28;93976;-38
2022/05/20 13:08:17;;;;;;;22.23;15.30;;;19.80;99.90;;;;;;4936593;28;95876;-35
2022/05/20 13:10:43;;;;;;;18.85;15.75;;;19.80;99.90;;;;;;4933684;28;93451;-35
2022/05/20 13:13:22;;;;;;;18.25;15.68;;;19.70;99.90;;;;;;4934006;28;92184;-34
2022/05/20 13:16:00;;;;;;;15.48;13.95;;;19.70;99.90;;;;;;4933983;28;95041;-35
2022/05/20 13:18:34;;;;;;;16.23;14.52;;;19.50;99.90;;;;;;4934168;28;94682;-35
2022/05/20 13:21:16;;;;;;;16.40;13.75;;;19.40;99.90;;;;;;4934137;28;94595;-36
2022/05/20 13:23:45;;;;;;;13.30;11.65;;;19.30;99.90;;;;;;4934186;28;92762;-38
2022/05/20 13:26:24;;;;;;;13.80;12.43;;;19.30;99.90;;;;;;4934045;28;95792;-34
2022/05/20 13:28:50;;;;;;;13.02;11.70;;;19.30;99.90;;;;;;4933723;28;96362;-34
2022/05/20 13:31:21;;;;;;;11.60;10.48;;;19.30;99.90;;;;;;4934084;28;93307;-34
2022/05/20 13:33:47;;;;;;;10.88;9.85;;;19.30;99.90;;;;;;4945909;28;92835;-35
2022/05/20 13:36:17;;;;;;;9.30;8.40;;;19.30;99.90;;;;;;4953287;28;93451;-36
2022/05/20 13:38:59;;;;;;;12.98;10.90;;;19.30;99.90;;;;;;4953460;28;93593;-34
2022/05/20 13:41:30;;;;;;;14.35;9.90;;;19.20;99.90;;;;;;4954128;28;93557;-37
2022/05/20 13:43:55;;;;;;;17.15;8.80;;;19.20;99.90;;;;;;4954132;28;93299;-34